Kezdőlap
METAR-TAF:

METAR-TAF

Repülőterek :

Vardø, Norvégia

földrajzi szélesség: 70-21N, földrajzi hosszúság: 031-03E, magasság: 12 m

Jelenlegi meteorológiai megfigyelések

A jelentés 16 órával és 25 perccel ezelõtt készült, 21:20 UTC
Nyugat-északnyugati szél 12 kt
Hőmérséklet -1°C
Páratartalom 86%
Légköri nyomás 1015 hPa
Látótávolság 10 km, vagy több
Kevés felhő 300 lábon
Szakadozott felhőzet 3500 lábon
enyhe hózápor

METAR: ENSS 302120Z 29012KT 9999 -SHSN FEW003 BKN035 M01/M03 Q1015 RMK WIND 500FT 29017KT

Idő: 14:45 (13:45 UTC)


TAF: hiányzik

Meteorológiai megfigyelések és előrejelzések több, mint 4000 repülőtéren (METAR és TAF jelentéseket).

A térképen piros és sárga pontok jelzik az elérhető meteorológiai állomásokat.

Mozgassa az egeret a pont fölött, hogy megjelenjen az állomás neve.

Azután kattintson az időjárási megfigyelések és előrejelzések megtekintéséhez.

A térkép megváltoztatása: kattintson a fekete keresztel jelölt zöld gombra ráközelítéshez, a vonallal jelölt zöld gombra távolításhoz, vagy a zöld nyilakra a szomszédos térképek eléréséhez.


METAR-TAF: